sensor_id;sensor_type;location;lat;lon;timestamp;pressure;altitude;pressure_sealevel;temperature;humidity
6615;BME280;3343;42.896;23.912;2023-02-11T00:00:50;98306.63;;;-3.86;72.10
6615;BME280;3343;42.896;23.912;2023-02-11T00:03:16;98310.66;;;-3.78;71.40
6615;BME280;3343;42.896;23.912;2023-02-11T00:05:43;98309.88;;;-3.80;71.72
6615;BME280;3343;42.896;23.912;2023-02-11T00:08:10;98296.94;;;-4.02;73.75
6615;BME280;3343;42.896;23.912;2023-02-11T00:10:42;98298.84;;;-3.61;73.78
6615;BME280;3343;42.896;23.912;2023-02-11T00:13:11;98313.34;;;-3.13;70.51
6615;BME280;3343;42.896;23.912;2023-02-11T00:15:37;98318.97;;;-3.25;70.39
6615;BME280;3343;42.896;23.912;2023-02-11T00:18:04;98313.94;;;-3.06;68.87
6615;BME280;3343;42.896;23.912;2023-02-11T00:20:31;98317.94;;;-2.99;68.55
6615;BME280;3343;42.896;23.912;2023-02-11T00:22:58;98318.72;;;-2.75;67.44
6615;BME280;3343;42.896;23.912;2023-02-11T00:25:25;98311.28;;;-2.83;67.22
6615;BME280;3343;42.896;23.912;2023-02-11T00:27:53;98297.53;;;-2.62;65.57
6615;BME280;3343;42.896;23.912;2023-02-11T00:30:20;98303.94;;;-2.92;66.48
6615;BME280;3343;42.896;23.912;2023-02-11T00:32:47;98299.00;;;-2.76;66.77
6615;BME280;3343;42.896;23.912;2023-02-11T00:35:14;98296.34;;;-2.75;65.75
6615;BME280;3343;42.896;23.912;2023-02-11T00:37:41;98288.50;;;-3.14;67.27
6615;BME280;3343;42.896;23.912;2023-02-11T00:40:09;98281.53;;;-3.12;67.20
6615;BME280;3343;42.896;23.912;2023-02-11T00:42:36;98287.81;;;-2.97;66.51
6615;BME280;3343;42.896;23.912;2023-02-11T00:45:05;98286.88;;;-2.74;65.88
6615;BME280;3343;42.896;23.912;2023-02-11T00:47:34;98282.97;;;-3.27;65.95
6615;BME280;3343;42.896;23.912;2023-02-11T00:50:01;98270.94;;;-4.18;69.82
6615;BME280;3343;42.896;23.912;2023-02-11T00:52:29;98272.38;;;-4.86;74.48
6615;BME280;3343;42.896;23.912;2023-02-11T00:54:56;98275.53;;;-4.77;75.36
6615;BME280;3343;42.896;23.912;2023-02-11T00:57:23;98281.13;;;-4.66;75.58
6615;BME280;3343;42.896;23.912;2023-02-11T00:59:50;98275.47;;;-4.51;75.81
6615;BME280;3343;42.896;23.912;2023-02-11T01:02:18;98265.44;;;-4.32;75.68
6615;BME280;3343;42.896;23.912;2023-02-11T01:04:45;98258.28;;;-4.49;75.38
6615;BME280;3343;42.896;23.912;2023-02-11T01:07:12;98275.31;;;-3.97;73.72
6615;BME280;3343;42.896;23.912;2023-02-11T01:09:38;98260.84;;;-3.54;72.43
6615;BME280;3343;42.896;23.912;2023-02-11T01:12:05;98272.44;;;-3.21;69.75
6615;BME280;3343;42.896;23.912;2023-02-11T01:14:32;98270.94;;;-3.04;68.48
6615;BME280;3343;42.896;23.912;2023-02-11T01:16:59;98269.03;;;-3.43;67.58
6615;BME280;3343;42.896;23.912;2023-02-11T01:19:27;98270.25;;;-3.53;68.74
6615;BME280;3343;42.896;23.912;2023-02-11T01:21:54;98271.81;;;-3.49;67.45
6615;BME280;3343;42.896;23.912;2023-02-11T01:24:21;98265.63;;;-3.67;67.39
6615;BME280;3343;42.896;23.912;2023-02-11T01:26:48;98253.84;;;-3.96;68.69
6615;BME280;3343;42.896;23.912;2023-02-11T01:29:16;98254.28;;;-4.08;69.99
6615;BME280;3343;42.896;23.912;2023-02-11T01:31:42;98253.72;;;-4.41;70.53
6615;BME280;3343;42.896;23.912;2023-02-11T01:34:09;98252.53;;;-4.31;71.44
6615;BME280;3343;42.896;23.912;2023-02-11T01:36:38;98255.13;;;-3.84;70.46
6615;BME280;3343;42.896;23.912;2023-02-11T01:39:05;98251.06;;;-3.68;69.20
6615;BME280;3343;42.896;23.912;2023-02-11T01:41:33;98257.13;;;-3.92;69.11
6615;BME280;3343;42.896;23.912;2023-02-11T01:44:22;98257.59;;;-3.36;68.20
6615;BME280;3343;42.896;23.912;2023-02-11T01:46:49;98249.38;;;-3.45;68.14
6615;BME280;3343;42.896;23.912;2023-02-11T01:49:18;98258.44;;;-3.13;67.45
6615;BME280;3343;42.896;23.912;2023-02-11T01:51:51;98247.66;;;-3.45;67.01
6615;BME280;3343;42.896;23.912;2023-02-11T01:54:23;98255.25;;;-3.42;67.63
6615;BME280;3343;42.896;23.912;2023-02-11T01:57:11;98252.19;;;-3.30;65.87
6615;BME280;3343;42.896;23.912;2023-02-11T02:00:03;98257.06;;;-3.22;65.66
6615;BME280;3343;42.896;23.912;2023-02-11T02:02:35;98248.84;;;-3.10;65.05
6615;BME280;3343;42.896;23.912;2023-02-11T02:05:08;98257.00;;;-3.21;64.71
6615;BME280;3343;42.896;23.912;2023-02-11T02:07:46;98239.75;;;-3.40;65.48
6615;BME280;3343;42.896;23.912;2023-02-11T02:10:18;98265.25;;;-3.34;65.24
6615;BME280;3343;42.896;23.912;2023-02-11T02:12:46;98267.88;;;-3.36;64.61
6615;BME280;3343;42.896;23.912;2023-02-11T02:15:22;98266.38;;;-3.19;63.85
6615;BME280;3343;42.896;23.912;2023-02-11T02:17:57;98268.06;;;-3.18;64.03
6615;BME280;3343;42.896;23.912;2023-02-11T02:20:57;98271.94;;;-3.08;63.43
6615;BME280;3343;42.896;23.912;2023-02-11T02:27:19;98262.78;;;-3.15;61.55
6615;BME280;3343;42.896;23.912;2023-02-11T02:30:15;98264.22;;;-3.08;61.74
6615;BME280;3343;42.896;23.912;2023-02-11T02:32:57;98262.97;;;-3.42;63.27
6615;BME280;3343;42.896;23.912;2023-02-11T02:35:34;98260.94;;;-3.34;63.15
6615;BME280;3343;42.896;23.912;2023-02-11T02:38:07;98255.13;;;-3.84;64.69
6615;BME280;3343;42.896;23.912;2023-02-11T02:40:41;98253.72;;;-4.16;67.52
6615;BME280;3343;42.896;23.912;2023-02-11T02:43:10;98257.41;;;-4.00;64.84
6615;BME280;3343;42.896;23.912;2023-02-11T02:45:39;98261.66;;;-3.75;64.61
6615;BME280;3343;42.896;23.912;2023-02-11T02:48:22;98252.97;;;-3.73;65.92
6615;BME280;3343;42.896;23.912;2023-02-11T02:50:53;98257.03;;;-4.12;69.08
6615;BME280;3343;42.896;23.912;2023-02-11T02:53:31;98245.78;;;-4.33;68.38
6615;BME280;3343;42.896;23.912;2023-02-11T02:56:08;98257.34;;;-4.22;67.85
6615;BME280;3343;42.896;23.912;2023-02-11T02:58:53;98250.09;;;-4.35;69.04
6615;BME280;3343;42.896;23.912;2023-02-11T03:01:31;98247.63;;;-4.88;72.77
6615;BME280;3343;42.896;23.912;2023-02-11T03:04:06;98230.75;;;-4.45;72.65
6615;BME280;3343;42.896;23.912;2023-02-11T03:06:44;98236.91;;;-4.01;69.47
6615;BME280;3343;42.896;23.912;2023-02-11T03:09:17;98231.75;;;-3.78;67.64
6615;BME280;3343;42.896;23.912;2023-02-11T03:11:47;98233.03;;;-3.90;66.92
6615;BME280;3343;42.896;23.912;2023-02-11T03:14:16;98231.13;;;-3.85;67.59
6615;BME280;3343;42.896;23.912;2023-02-11T03:16:44;98236.28;;;-4.08;67.77
6615;BME280;3343;42.896;23.912;2023-02-11T03:19:18;98242.91;;;-3.79;66.27
6615;BME280;3343;42.896;23.912;2023-02-11T03:21:48;98229.25;;;-4.03;67.25
6615;BME280;3343;42.896;23.912;2023-02-11T03:24:20;98237.72;;;-3.77;66.17
6615;BME280;3343;42.896;23.912;2023-02-11T03:26:51;98232.47;;;-3.74;65.83
6615;BME280;3343;42.896;23.912;2023-02-11T03:29:24;98234.53;;;-4.31;67.31
6615;BME280;3343;42.896;23.912;2023-02-11T03:32:03;98233.03;;;-3.90;65.88
6615;BME280;3343;42.896;23.912;2023-02-11T03:34:38;98234.69;;;-3.65;64.79
6615;BME280;3343;42.896;23.912;2023-02-11T03:37:11;98230.00;;;-3.77;63.59
6615;BME280;3343;42.896;23.912;2023-02-11T03:39:43;98231.44;;;-3.70;64.26
6615;BME280;3343;42.896;23.912;2023-02-11T03:42:12;98230.00;;;-3.77;64.81
6615;BME280;3343;42.896;23.912;2023-02-11T03:44:44;98240.19;;;-3.53;64.25
6615;BME280;3343;42.896;23.912;2023-02-11T03:47:13;98230.63;;;-3.49;63.14
6615;BME280;3343;42.896;23.912;2023-02-11T03:49:45;98237.13;;;-3.62;63.36
6615;BME280;3343;42.896;23.912;2023-02-11T03:52:14;98240.56;;;-3.62;63.85
6615;BME280;3343;42.896;23.912;2023-02-11T03:54:43;98241.31;;;-3.81;63.84
6615;BME280;3343;42.896;23.912;2023-02-11T03:57:12;98245.16;;;-4.91;67.20
6615;BME280;3343;42.896;23.912;2023-02-11T03:59:53;98235.75;;;-5.17;69.10
6615;BME280;3343;42.896;23.912;2023-02-11T04:02:22;98242.50;;;-4.88;69.17
6615;BME280;3343;42.896;23.912;2023-02-11T04:04:52;98235.78;;;-4.42;67.97
6615;BME280;3343;42.896;23.912;2023-02-11T04:07:19;98235.31;;;-4.29;66.28
6615;BME280;3343;42.896;23.912;2023-02-11T04:09:46;98234.88;;;-4.17;66.11
6615;BME280;3343;42.896;23.912;2023-02-11T04:12:13;98232.94;;;-4.10;64.86
6615;BME280;3343;42.896;23.912;2023-02-11T04:14:39;98233.09;;;-3.91;64.39
6615;BME280;3343;42.896;23.912;2023-02-11T04:17:06;98233.66;;;-3.83;64.10
6615;BME280;3343;42.896;23.912;2023-02-11T04:19:33;98234.69;;;-3.65;63.36
6615;BME280;3343;42.896;23.912;2023-02-11T04:22:02;98231.44;;;-3.70;62.07
6615;BME280;3343;42.896;23.912;2023-02-11T04:24:29;98226.47;;;-3.75;61.98
6615;BME280;3343;42.896;23.912;2023-02-11T04:26:55;98219.81;;;-4.75;64.39
6615;BME280;3343;42.896;23.912;2023-02-11T04:29:23;98214.59;;;-4.99;67.95
6615;BME280;3343;42.896;23.912;2023-02-11T04:31:49;98206.00;;;-4.48;66.32
6615;BME280;3343;42.896;23.912;2023-02-11T04:34:16;98208.63;;;-4.74;66.98
6615;BME280;3343;42.896;23.912;2023-02-11T04:36:43;98200.81;;;-4.46;64.30
6615;BME280;3343;42.896;23.912;2023-02-11T04:39:11;98204.44;;;-4.27;63.69
6615;BME280;3343;42.896;23.912;2023-02-11T04:41:38;98194.66;;;-4.42;63.61
6615;BME280;3343;42.896;23.912;2023-02-11T04:44:05;98197.00;;;-4.36;64.19
6615;BME280;3343;42.896;23.912;2023-02-11T04:46:32;98186.53;;;-4.30;63.58
6615;BME280;3343;42.896;23.912;2023-02-11T04:48:59;98193.09;;;-4.22;63.36
6615;BME280;3343;42.896;23.912;2023-02-11T04:51:26;98187.09;;;-4.22;62.36
6615;BME280;3343;42.896;23.912;2023-02-11T04:53:53;98183.88;;;-4.27;62.27
6615;BME280;3343;42.896;23.912;2023-02-11T04:56:21;98196.44;;;-4.20;62.67
6615;BME280;3343;42.896;23.912;2023-02-11T04:58:48;98198.94;;;-4.18;62.14
6615;BME280;3343;42.896;23.912;2023-02-11T05:01:15;98200.22;;;-4.06;62.19
6615;BME280;3343;42.896;23.912;2023-02-11T05:03:42;98203.09;;;-4.39;62.38
6615;BME280;3343;42.896;23.912;2023-02-11T05:06:10;98197.75;;;-4.81;64.85
6615;BME280;3343;42.896;23.912;2023-02-11T05:08:37;98197.84;;;-5.09;66.19
6615;BME280;3343;42.896;23.912;2023-02-11T05:11:05;98197.84;;;-5.09;65.61
6615;BME280;3343;42.896;23.912;2023-02-11T05:13:33;98194.00;;;-4.97;66.97
6615;BME280;3343;42.896;23.912;2023-02-11T05:16:00;98175.72;;;-4.88;65.79
6615;BME280;3343;42.896;23.912;2023-02-11T05:18:27;98192.19;;;-4.69;64.13
6615;BME280;3343;42.896;23.912;2023-02-11T05:20:54;98188.28;;;-4.56;63.73
6615;BME280;3343;42.896;23.912;2023-02-11T05:23:21;98184.28;;;-4.39;62.91
6615;BME280;3343;42.896;23.912;2023-02-11T05:25:47;98185.94;;;-4.38;62.01
6615;BME280;3343;42.896;23.912;2023-02-11T05:28:14;98186.78;;;-4.38;62.62
6615;BME280;3343;42.896;23.912;2023-02-11T05:30:42;98191.53;;;-4.26;63.18
6615;BME280;3343;42.896;23.912;2023-02-11T05:33:09;98191.03;;;-4.85;63.26
6615;BME280;3343;42.896;23.912;2023-02-11T05:35:36;98186.25;;;-5.22;64.98
6615;BME280;3343;42.896;23.912;2023-02-11T05:38:03;98182.78;;;-5.20;66.03
6615;BME280;3343;42.896;23.912;2023-02-11T05:40:30;98180.19;;;-4.93;65.33
6615;BME280;3343;42.896;23.912;2023-02-11T05:42:57;98186.16;;;-4.68;63.54
6615;BME280;3343;42.896;23.912;2023-02-11T05:45:24;98170.44;;;-5.08;64.49
6615;BME280;3343;42.896;23.912;2023-02-11T05:47:52;98200.00;;;-4.97;66.02
6615;BME280;3343;42.896;23.912;2023-02-11T05:50:19;98192.44;;;-4.76;65.38
6615;BME280;3343;42.896;23.912;2023-02-11T05:52:46;98190.41;;;-4.43;65.33
6615;BME280;3343;42.896;23.912;2023-02-11T05:55:13;98194.00;;;-3.77;65.07
6615;BME280;3343;42.896;23.912;2023-02-11T05:57:40;98200.69;;;-3.08;60.14
6615;BME280;3343;42.896;23.912;2023-02-11T06:00:08;98190.66;;;-2.14;58.08
6615;BME280;3343;42.896;23.912;2023-02-11T06:02:35;98201.13;;;-1.24;54.34
6615;BME280;3343;42.896;23.912;2023-02-11T06:05:03;98197.81;;;-0.57;50.86
6615;BME280;3343;42.896;23.912;2023-02-11T06:07:30;98204.16;;;-0.30;48.86
6615;BME280;3343;42.896;23.912;2023-02-11T06:09:57;98198.25;;;0.17;47.48
6615;BME280;3343;42.896;23.912;2023-02-11T06:12:24;98194.66;;;0.51;45.83
6615;BME280;3343;42.896;23.912;2023-02-11T06:14:51;98206.44;;;0.72;45.81
6615;BME280;3343;42.896;23.912;2023-02-11T06:17:18;98202.38;;;1.28;44.99
6615;BME280;3343;42.896;23.912;2023-02-11T06:19:45;98201.56;;;1.27;44.39
6615;BME280;3343;42.896;23.912;2023-02-11T06:22:13;98202.34;;;1.58;43.79
6615;BME280;3343;42.896;23.912;2023-02-11T06:24:41;98197.63;;;1.65;44.20
6615;BME280;3343;42.896;23.912;2023-02-11T06:27:07;98205.72;;;1.74;44.57
6615;BME280;3343;42.896;23.912;2023-02-11T06:29:34;98196.03;;;2.33;43.64
6615;BME280;3343;42.896;23.912;2023-02-11T06:32:02;98200.50;;;2.99;40.36
6615;BME280;3343;42.896;23.912;2023-02-11T06:34:29;98196.53;;;3.46;40.76
6615;BME280;3343;42.896;23.912;2023-02-11T06:36:56;98200.59;;;3.37;39.70
6615;BME280;3343;42.896;23.912;2023-02-11T06:39:24;98207.00;;;3.19;41.87
6615;BME280;3343;42.896;23.912;2023-02-11T06:41:51;98203.69;;;3.17;41.51
6615;BME280;3343;42.896;23.912;2023-02-11T06:44:18;98202.78;;;2.91;42.80
6615;BME280;3343;42.896;23.912;2023-02-11T06:46:45;98209.34;;;3.36;41.54
6615;BME280;3343;42.896;23.912;2023-02-11T06:49:12;98215.00;;;3.81;40.99
6615;BME280;3343;42.896;23.912;2023-02-11T06:51:39;98218.44;;;4.07;40.92
6615;BME280;3343;42.896;23.912;2023-02-11T06:54:06;98214.56;;;4.38;39.88
6615;BME280;3343;42.896;23.912;2023-02-11T06:56:34;98205.50;;;4.91;39.31
6615;BME280;3343;42.896;23.912;2023-02-11T06:59:01;98206.22;;;4.93;39.06
6615;BME280;3343;42.896;23.912;2023-02-11T07:01:28;98200.81;;;5.66;37.80
6615;BME280;3343;42.896;23.912;2023-02-11T07:03:55;98205.69;;;5.82;37.32
6615;BME280;3343;42.896;23.912;2023-02-11T07:06:23;98192.66;;;5.93;37.51
6615;BME280;3343;42.896;23.912;2023-02-11T07:08:52;98201.31;;;5.83;37.24
6615;BME280;3343;42.896;23.912;2023-02-11T07:11:21;98204.72;;;5.72;36.76
6615;BME280;3343;42.896;23.912;2023-02-11T07:13:51;98178.38;;;5.75;37.12
6615;BME280;3343;42.896;23.912;2023-02-11T07:16:19;98195.16;;;5.95;36.36
6615;BME280;3343;42.896;23.912;2023-02-11T07:18:47;98197.25;;;5.67;37.14
6615;BME280;3343;42.896;23.912;2023-02-11T07:21:17;98193.69;;;5.68;37.33
6615;BME280;3343;42.896;23.912;2023-02-11T07:23:44;98195.22;;;5.60;36.86
6615;BME280;3343;42.896;23.912;2023-02-11T07:26:16;98191.75;;;5.48;37.05
6615;BME280;3343;42.896;23.912;2023-02-11T07:28:43;98190.81;;;4.04;40.06
6615;BME280;3343;42.896;23.912;2023-02-11T07:31:13;98171.69;;;3.67;40.73
6615;BME280;3343;42.896;23.912;2023-02-11T07:33:41;98186.38;;;3.81;40.43
6615;BME280;3343;42.896;23.912;2023-02-11T07:36:11;98186.66;;;4.02;40.50
6615;BME280;3343;42.896;23.912;2023-02-11T07:38:38;98180.69;;;4.38;40.14
6615;BME280;3343;42.896;23.912;2023-02-11T07:41:07;98190.53;;;4.82;39.10
6615;BME280;3343;42.896;23.912;2023-02-11T07:43:34;98179.81;;;5.22;38.57
6615;BME280;3343;42.896;23.912;2023-02-11T07:46:02;98175.63;;;5.65;37.42
6615;BME280;3343;42.896;23.912;2023-02-11T07:48:31;98174.97;;;5.97;36.40
6615;BME280;3343;42.896;23.912;2023-02-11T07:51:04;98177.72;;;6.29;36.11
6615;BME280;3343;42.896;23.912;2023-02-11T07:53:31;98173.56;;;6.04;35.98
6615;BME280;3343;42.896;23.912;2023-02-11T07:55:58;98164.75;;;6.38;35.80
6615;BME280;3343;42.896;23.912;2023-02-11T07:58:25;98187.22;;;6.95;34.48
6615;BME280;3343;42.896;23.912;2023-02-11T08:00:52;98179.38;;;7.48;34.35
6615;BME280;3343;42.896;23.912;2023-02-11T08:03:18;98180.00;;;7.61;34.02
6615;BME280;3343;42.896;23.912;2023-02-11T08:05:47;98175.72;;;8.12;32.55
6615;BME280;3343;42.896;23.912;2023-02-11T08:08:13;98168.84;;;8.20;32.67
6615;BME280;3343;42.896;23.912;2023-02-11T08:10:40;98170.47;;;8.42;31.66
6615;BME280;3343;42.896;23.912;2023-02-11T08:13:07;98166.34;;;8.49;32.06
6615;BME280;3343;42.896;23.912;2023-02-11T08:15:34;98173.28;;;8.60;32.07
6615;BME280;3343;42.896;23.912;2023-02-11T08:18:01;98168.28;;;8.47;31.09
6615;BME280;3343;42.896;23.912;2023-02-11T08:20:28;98161.19;;;8.78;31.47
6615;BME280;3343;42.896;23.912;2023-02-11T08:22:56;98152.91;;;9.12;32.02
6615;BME280;3343;42.896;23.912;2023-02-11T08:25:23;98170.03;;;8.97;32.79
6615;BME280;3343;42.896;23.912;2023-02-11T08:27:50;98162.03;;;9.27;32.43
6615;BME280;3343;42.896;23.912;2023-02-11T08:30:17;98156.75;;;9.27;32.42
6615;BME280;3343;42.896;23.912;2023-02-11T08:32:44;98160.19;;;9.47;31.56
6615;BME280;3343;42.896;23.912;2023-02-11T08:35:11;98171.56;;;8.89;31.98
6615;BME280;3343;42.896;23.912;2023-02-11T08:37:38;98149.72;;;9.18;31.45
6615;BME280;3343;42.896;23.912;2023-02-11T08:40:06;98156.91;;;9.54;31.00
6615;BME280;3343;42.896;23.912;2023-02-11T08:42:33;98153.19;;;9.94;30.25
6615;BME280;3343;42.896;23.912;2023-02-11T08:45:00;98161.72;;;9.69;30.50
6615;BME280;3343;42.896;23.912;2023-02-11T08:47:27;98152.72;;;9.71;30.37
6615;BME280;3343;42.896;23.912;2023-02-11T08:49:54;98161.72;;;9.59;30.14
6615;BME280;3343;42.896;23.912;2023-02-11T08:52:21;98156.28;;;9.80;30.97
6615;BME280;3343;42.896;23.912;2023-02-11T08:54:48;98162.63;;;9.87;31.00
6615;BME280;3343;42.896;23.912;2023-02-11T08:57:16;98150.66;;;9.55;32.76
6615;BME280;3343;42.896;23.912;2023-02-11T08:59:43;98149.28;;;9.32;32.96
6615;BME280;3343;42.896;23.912;2023-02-11T09:02:10;98158.44;;;8.89;33.47
6615;BME280;3343;42.896;23.912;2023-02-11T09:04:38;98157.66;;;8.18;34.43
6615;BME280;3343;42.896;23.912;2023-02-11T09:07:05;98161.22;;;8.38;35.19
6615;BME280;3343;42.896;23.912;2023-02-11T09:09:32;98164.78;;;8.87;34.39
6615;BME280;3343;42.896;23.912;2023-02-11T09:11:58;98155.78;;;9.28;33.32
6615;BME280;3343;42.896;23.912;2023-02-11T09:14:27;98152.31;;;9.66;32.49
6615;BME280;3343;42.896;23.912;2023-02-11T09:16:54;98143.72;;;9.64;32.82
6615;BME280;3343;42.896;23.912;2023-02-11T09:19:21;98155.38;;;9.42;32.63
6615;BME280;3343;42.896;23.912;2023-02-11T09:21:48;98146.78;;;9.40;32.75
6615;BME280;3343;42.896;23.912;2023-02-11T09:24:15;98144.44;;;9.56;32.71
6615;BME280;3343;42.896;23.912;2023-02-11T09:26:42;98127.13;;;9.64;32.77
6615;BME280;3343;42.896;23.912;2023-02-11T09:29:09;98132.41;;;10.01;32.06
6615;BME280;3343;42.896;23.912;2023-02-11T09:31:38;98131.78;;;10.16;32.04
6615;BME280;3343;42.896;23.912;2023-02-11T09:34:05;98119.44;;;10.27;32.00
6615;BME280;3343;42.896;23.912;2023-02-11T09:36:33;98116.59;;;10.65;31.39
6615;BME280;3343;42.896;23.912;2023-02-11T09:39:05;98112.13;;;10.11;31.28
6615;BME280;3343;42.896;23.912;2023-02-11T09:41:40;98111.09;;;9.94;32.61
6615;BME280;3343;42.896;23.912;2023-02-11T09:44:17;98105.03;;;9.94;31.98
6615;BME280;3343;42.896;23.912;2023-02-11T09:46:49;98102.44;;;9.84;31.91
6615;BME280;3343;42.896;23.912;2023-02-11T09:49:22;98097.94;;;9.67;31.94
6615;BME280;3343;42.896;23.912;2023-02-11T09:51:53;98091.38;;;9.80;31.89
6615;BME280;3343;42.896;23.912;2023-02-11T09:54:27;98088.00;;;10.25;32.09
6615;BME280;3343;42.896;23.912;2023-02-11T09:56:55;98077.34;;;10.17;30.87
6615;BME280;3343;42.896;23.912;2023-02-11T09:59:22;98068.75;;;9.60;31.44
6615;BME280;3343;42.896;23.912;2023-02-11T10:01:54;98061.03;;;9.86;31.85
6615;BME280;3343;42.896;23.912;2023-02-11T10:04:38;98052.13;;;10.24;31.95
6615;BME280;3343;42.896;23.912;2023-02-11T10:07:18;98058.34;;;10.86;30.54
6615;BME280;3343;42.896;23.912;2023-02-11T10:10:01;98049.41;;;10.61;30.58
6615;BME280;3343;42.896;23.912;2023-02-11T10:12:37;98045.25;;;10.76;31.18
6615;BME280;3343;42.896;23.912;2023-02-11T10:15:17;98041.50;;;10.61;31.11
6615;BME280;3343;42.896;23.912;2023-02-11T10:18:00;98039.94;;;10.68;30.51
6615;BME280;3343;42.896;23.912;2023-02-11T10:20:35;98031.97;;;10.60;30.59
6615;BME280;3343;42.896;23.912;2023-02-11T10:23:09;98021.16;;;10.36;30.41
6615;BME280;3343;42.896;23.912;2023-02-11T10:25:42;98022.00;;;10.36;30.65
6615;BME280;3343;42.896;23.912;2023-02-11T10:28:12;98015.94;;;10.53;30.19
6615;BME280;3343;42.896;23.912;2023-02-11T10:30:42;98001.75;;;10.90;29.60
6615;BME280;3343;42.896;23.912;2023-02-11T10:33:18;97998.75;;;10.85;29.27
6615;BME280;3343;42.896;23.912;2023-02-11T10:35:48;98003.56;;;10.90;29.49
6615;BME280;3343;42.896;23.912;2023-02-11T10:38:15;97988.63;;;10.72;29.51
6615;BME280;3343;42.896;23.912;2023-02-11T10:40:43;97969.25;;;10.81;29.26
6615;BME280;3343;42.896;23.912;2023-02-11T10:43:14;97962.41;;;10.89;29.98
6615;BME280;3343;42.896;23.912;2023-02-11T10:45:42;97965.75;;;11.25;28.75
6615;BME280;3343;42.896;23.912;2023-02-11T10:48:36;97968.19;;;11.18;28.95
6615;BME280;3343;42.896;23.912;2023-02-11T10:51:13;97966.28;;;11.28;29.20
6615;BME280;3343;42.896;23.912;2023-02-11T10:53:41;97962.16;;;11.60;28.58
6615;BME280;3343;42.896;23.912;2023-02-11T10:56:11;97963.44;;;11.56;28.84
6615;BME280;3343;42.896;23.912;2023-02-11T10:58:43;97954.59;;;11.65;28.63
6615;BME280;3343;42.896;23.912;2023-02-11T11:01:10;97953.38;;;11.93;28.55
6615;BME280;3343;42.896;23.912;2023-02-11T11:03:49;97945.81;;;11.98;28.01
6615;BME280;3343;42.896;23.912;2023-02-11T11:06:27;97944.63;;;11.85;28.76
6615;BME280;3343;42.896;23.912;2023-02-11T11:08:55;97939.44;;;11.67;28.46
6615;BME280;3343;42.896;23.912;2023-02-11T11:11:23;97936.69;;;11.85;29.47
6615;BME280;3343;42.896;23.912;2023-02-11T11:13:55;97926.03;;;12.10;28.75
6615;BME280;3343;42.896;23.912;2023-02-11T11:16:24;97933.50;;;12.31;28.23
6615;BME280;3343;42.896;23.912;2023-02-11T11:19:13;97931.59;;;11.83;28.15
6615;BME280;3343;42.896;23.912;2023-02-11T11:21:43;97926.56;;;11.64;29.02
6615;BME280;3343;42.896;23.912;2023-02-11T11:24:16;97932.28;;;12.09;28.69
6615;BME280;3343;42.896;23.912;2023-02-11T11:26:46;97928.06;;;12.17;27.56
6615;BME280;3343;42.896;23.912;2023-02-11T11:29:16;97919.75;;;12.11;28.15
6615;BME280;3343;42.896;23.912;2023-02-11T11:31:50;97914.38;;;12.46;27.53
6615;BME280;3343;42.896;23.912;2023-02-11T11:34:26;97921.56;;;12.11;27.97
6615;BME280;3343;42.896;23.912;2023-02-11T11:36:54;97906.94;;;12.33;26.96
6615;BME280;3343;42.896;23.912;2023-02-11T11:39:23;97900.81;;;12.57;27.45
6615;BME280;3343;42.896;23.912;2023-02-11T11:41:53;97898.69;;;12.52;27.35
6615;BME280;3343;42.896;23.912;2023-02-11T11:44:26;97892.88;;;12.65;27.43
6615;BME280;3343;42.896;23.912;2023-02-11T11:47:11;97898.13;;;12.89;26.31
6615;BME280;3343;42.896;23.912;2023-02-11T11:49:46;97895.44;;;13.22;26.16
6615;BME280;3343;42.896;23.912;2023-02-11T11:52:23;97898.59;;;13.17;25.96
6615;BME280;3343;42.896;23.912;2023-02-11T11:54:59;97890.28;;;13.36;25.43
6615;BME280;3343;42.896;23.912;2023-02-11T11:57:28;97892.69;;;12.83;24.71
6615;BME280;3343;42.896;23.912;2023-02-11T11:59:56;97886.78;;;12.56;26.20
6615;BME280;3343;42.896;23.912;2023-02-11T12:05:47;97867.91;;;12.92;25.75
6615;BME280;3343;42.896;23.912;2023-02-11T12:08:22;97869.56;;;12.93;26.27
6615;BME280;3343;42.896;23.912;2023-02-11T12:10:57;97858.84;;;12.78;26.30
6615;BME280;3343;42.896;23.912;2023-02-11T12:13:41;97856.41;;;12.60;26.34
6615;BME280;3343;42.896;23.912;2023-02-11T12:16:20;97845.13;;;12.83;25.33
6615;BME280;3343;42.896;23.912;2023-02-11T12:22:07;97838.28;;;13.13;24.31
6615;BME280;3343;42.896;23.912;2023-02-11T12:24:55;97834.69;;;13.45;23.84
6615;BME280;3343;42.896;23.912;2023-02-11T12:27:39;97825.94;;;13.44;24.24
6615;BME280;3343;42.896;23.912;2023-02-11T12:30:20;97828.81;;;13.34;23.50
6615;BME280;3343;42.896;23.912;2023-02-11T12:32:54;97827.78;;;13.66;23.44
6615;BME280;3343;42.896;23.912;2023-02-11T12:35:34;97826.72;;;13.76;23.70
6615;BME280;3343;42.896;23.912;2023-02-11T12:38:22;97819.16;;;13.73;23.33
6615;BME280;3343;42.896;23.912;2023-02-11T12:41:03;97821.25;;;13.23;23.06
6615;BME280;3343;42.896;23.912;2023-02-11T12:43:36;97822.13;;;12.99;23.28
6615;BME280;3343;42.896;23.912;2023-02-11T12:46:14;97814.13;;;12.76;23.99
6615;BME280;3343;42.896;23.912;2023-02-11T12:49:15;97805.59;;;12.58;23.17
6615;BME280;3343;42.896;23.912;2023-02-11T12:51:58;97811.47;;;12.76;22.46
6615;BME280;3343;42.896;23.912;2023-02-11T12:54:35;97810.25;;;12.95;21.73
6615;BME280;3343;42.896;23.912;2023-02-11T12:57:12;97806.78;;;12.95;20.53
6615;BME280;3343;42.896;23.912;2023-02-11T12:59:49;97799.97;;;13.17;20.30
6615;BME280;3343;42.896;23.912;2023-02-11T13:02:26;97803.63;;;13.07;20.67
6615;BME280;3343;42.896;23.912;2023-02-11T13:04:56;97802.13;;;13.13;20.76
6615;BME280;3343;42.896;23.912;2023-02-11T13:07:30;97797.81;;;13.12;20.61
6615;BME280;3343;42.896;23.912;2023-02-11T13:10:04;97796.69;;;12.98;21.13
6615;BME280;3343;42.896;23.912;2023-02-11T13:12:34;97783.75;;;12.72;21.59
6615;BME280;3343;42.896;23.912;2023-02-11T13:15:20;97781.19;;;12.48;21.60
6615;BME280;3343;42.896;23.912;2023-02-11T13:17:55;97774.63;;;11.71;22.05
6615;BME280;3343;42.896;23.912;2023-02-11T13:20:35;97773.28;;;11.51;22.57
6615;BME280;3343;42.896;23.912;2023-02-11T13:23:12;97770.81;;;11.49;22.78
6615;BME280;3343;42.896;23.912;2023-02-11T13:25:48;97775.81;;;11.18;21.87
6615;BME280;3343;42.896;23.912;2023-02-11T13:28:31;97751.38;;;10.92;22.26
6615;BME280;3343;42.896;23.912;2023-02-11T13:31:01;97772.19;;;11.19;22.86
6615;BME280;3343;42.896;23.912;2023-02-11T13:33:35;97768.00;;;11.67;22.73
6615;BME280;3343;42.896;23.912;2023-02-11T13:36:13;97771.69;;;10.65;23.09
6615;BME280;3343;42.896;23.912;2023-02-11T13:38:50;97755.41;;;10.70;23.25
6615;BME280;3343;42.896;23.912;2023-02-11T13:41:23;97764.69;;;10.48;24.13
6615;BME280;3343;42.896;23.912;2023-02-11T13:44:00;97755.34;;;10.96;23.08